Portada
METAR-TAF:

METAR-TAF

Aeroports :

Tennant Creek, Austràlia

latitud: 19-38-04S, longitud: 134-11-00E, altitud: 377 m

Observació

L'informe es va fer fa 1 hora i 0 minuts, a les 16:00 UTC
Vent 5 kt del Oest/Nord-Oest
Temperatura 32°C
Humitat 38%
Pressió 1005 hPa
Visibilitat 10 km o més

METAR: YTNK 171600Z AUTO 29005KT 9999 // NCD 32/16 Q1005

Hora: 02:30 (17:00 UTC)

Pronòstic

L'informe es va fer fa 4 hores i 41 minuts, a les 12:19 UTC
Pronòstic vàlid del 17 a les 14 UTC al 18 a les 02 UTC
Vent 10 kt del Est
Visibilitat 10 km o més
sense núvols per sota de 1500 mi sense presència de cumulonimbus.

TAF: YTNK 171219Z 1714/1802 09010KT CAVOK

Observacions i pronòstics meteorològics de més de 4000 aeroports (METAR i TAF).

Les estacions disponibles són els punts grocs i vermells al mapa.

Posi el ratolí al punt desitjat per veure el nom de l'estació.

Feu clic per veure les observacions i els pronòstics meteorològics.

Per canviar el mapa: feu clic els botons verds amb una creu de color negre per apropar; al botó verd amb un guió per allunyar la imatge; o en les fletxes verdes per a mapes adjacents.


METAR-TAF: